Aviation Digital Data Service (ADDS)

Output produced by METARs form (0128 UTC 06 December 2019)
found at http://www.aviationweather.gov/metar/data/
 
Forecast for: KTVL (SOUTH LAKE TAHOE, CA, US)
Text: KTVL 052320Z 0600/0624 19007KT P6SM SCT070 SCT140
Forecast period: 0000 to 0500 UTC 06 December 2019
Forecast type: FROM: standard forecast or significant change
Winds: from the S (190 degrees) at 8 MPH (7 knots; 3.6 m/s)
Visibility: 6 or more miles 10+ km)
Ceiling: at least 12,000 feet AGL
Clouds: scattered clouds at 7000 feet AGL
scattered clouds at 14000 feet AGL
Weather: no significant weather forecast for this period
Text: FM060500 VRB03KT 1SM BR SCT010
Forecast period: 0500 to 1200 UTC 06 December 2019
Forecast type: FROM: standard forecast or significant change
Winds: variable direction winds at 3 MPH (3 knots; 1.5 m/s)
Visibility: 1.00 miles (1.61 km)
Ceiling: at least 12,000 feet AGL
Clouds: scattered clouds at 1000 feet AGL
Weather: BR  (mist)
Text: FM061200 19006KT P6SM SCT070 BKN200
Forecast period: 1200 UTC 06 December 2019 to 0000 UTC 07 December 2019
Forecast type: FROM: standard forecast or significant change
Winds: from the S (190 degrees) at 7 MPH (6 knots; 3.1 m/s)
Visibility: 6 or more miles 10+ km)
Ceiling: 20000 feet AGL
Clouds: scattered clouds at 7000 feet AGL
broken clouds at 20000 feet AGL
Weather: no significant weather forecast for this period